createdAt,value
2022-12-27T00:02:19.202Z,83.50
2022-12-27T00:04:46.189Z,83.50
2022-12-27T00:07:20.134Z,83.50
2022-12-27T00:09:47.058Z,83.60
2022-12-27T00:12:20.112Z,83.60
2022-12-27T00:14:47.022Z,83.60
2022-12-27T00:17:20.213Z,83.60
2022-12-27T00:19:54.154Z,83.60
2022-12-27T00:22:34.080Z,83.60
2022-12-27T00:25:14.125Z,83.70
2022-12-27T00:27:47.102Z,83.70
2022-12-27T00:30:13.991Z,83.70
2022-12-27T00:32:47.141Z,83.80
2022-12-27T00:35:14.071Z,83.80
2022-12-27T00:37:47.160Z,83.80
2022-12-27T00:40:14.039Z,83.80
2022-12-27T00:42:47.112Z,83.80
2022-12-27T00:45:20.112Z,83.80
2022-12-27T00:47:46.971Z,83.80
2022-12-27T00:50:20.197Z,83.80
2022-12-27T00:52:53.163Z,83.80
2022-12-27T00:55:26.117Z,83.80
2022-12-27T00:57:52.984Z,83.70
2022-12-27T01:00:26.113Z,83.80
2022-12-27T01:02:52.982Z,83.70
2022-12-27T01:05:26.133Z,83.70
2022-12-27T01:07:53.139Z,83.80
2022-12-27T01:10:27.128Z,83.70
2022-12-27T01:13:00.160Z,83.70
2022-12-27T01:15:33.154Z,83.80
2022-12-27T01:18:06.116Z,83.70
2022-12-27T01:20:33.011Z,83.70
2022-12-27T01:23:13.161Z,83.70
2022-12-27T01:25:46.128Z,83.60
2022-12-27T01:28:13.014Z,83.50
2022-12-27T01:30:46.122Z,83.50
2022-12-27T01:33:13.073Z,83.50
2022-12-27T01:35:46.154Z,83.50
2022-12-27T01:38:13.045Z,83.40
2022-12-27T01:40:46.168Z,83.40
2022-12-27T01:43:17.088Z,83.40
2022-12-27T01:45:51.146Z,83.40
2022-12-27T01:48:29.174Z,83.40
2022-12-27T01:50:58.936Z,83.40
2022-12-27T01:53:35.163Z,83.40
2022-12-27T01:56:15.118Z,83.40
2022-12-27T01:58:44.401Z,83.40
2022-12-27T02:01:20.242Z,83.40
2022-12-27T02:03:49.966Z,83.40
2022-12-27T02:06:25.113Z,83.40
2022-12-27T02:09:08.151Z,83.40
2022-12-27T02:12:00.191Z,83.40
2022-12-27T02:14:41.389Z,83.40
2022-12-27T02:17:20.193Z,83.50
2022-12-27T02:20:03.162Z,83.40
2022-12-27T02:23:17.201Z,83.50
2022-12-27T02:26:14.176Z,83.50
2022-12-27T02:28:50.392Z,83.50
2022-12-27T02:31:29.162Z,83.50
2022-12-27T02:33:58.745Z,83.50
2022-12-27T02:36:37.153Z,83.50
2022-12-27T02:39:05.191Z,83.50
2022-12-27T02:41:58.143Z,83.50
2022-12-27T02:44:44.044Z,83.50
2022-12-27T02:47:42.152Z,83.40
2022-12-27T02:50:28.511Z,83.30
2022-12-27T02:53:21.154Z,83.20
2022-12-27T02:56:25.513Z,83.20
2022-12-27T02:59:18.102Z,83.10
2022-12-27T03:02:22.276Z,82.90
2022-12-27T03:04:55.622Z,82.90
2022-12-27T03:07:32.175Z,82.80
2022-12-27T03:10:26.211Z,82.80
2022-12-27T03:13:25.148Z,82.70
2022-12-27T03:15:58.075Z,82.50
2022-12-27T03:18:35.174Z,82.40
2022-12-27T03:21:21.837Z,82.30
2022-12-27T03:24:21.156Z,82.30
2022-12-27T03:26:55.283Z,82.10
2022-12-27T03:29:48.151Z,82.00
2022-12-27T03:32:34.722Z,81.90
2022-12-27T03:35:28.142Z,81.90
2022-12-27T03:38:05.318Z,81.70
2022-12-27T03:40:41.214Z,81.60
2022-12-27T03:43:11.744Z,81.50
2022-12-27T03:46:24.299Z,81.40
2022-12-27T03:48:56.915Z,81.50
2022-12-27T03:51:31.230Z,81.50
2022-12-27T03:54:06.177Z,81.30
2022-12-27T03:56:40.121Z,81.10
2022-12-27T03:59:07.831Z,81.00
2022-12-27T04:01:41.248Z,80.90
2022-12-27T04:04:08.222Z,80.70
2022-12-27T04:06:41.193Z,80.60
2022-12-27T04:09:28.333Z,80.40
2022-12-27T04:12:20.157Z,79.60
2022-12-27T04:15:05.743Z,78.40
2022-12-27T04:17:58.181Z,77.80
2022-12-27T04:20:43.801Z,77.70
2022-12-27T04:23:36.162Z,77.10
2022-12-27T04:26:28.200Z,76.90
2022-12-27T04:29:13.864Z,76.90
2022-12-27T04:32:06.164Z,77.00
2022-12-27T04:34:45.116Z,76.70
2022-12-27T04:37:24.201Z,76.50
2022-12-27T04:40:11.379Z,76.50
2022-12-27T04:43:03.161Z,76.50
2022-12-27T04:45:48.512Z,76.40
2022-12-27T04:48:41.150Z,76.20
2022-12-27T04:51:27.305Z,76.10
2022-12-27T04:54:19.157Z,76.00
2022-12-27T04:56:46.027Z,75.90
2022-12-27T04:59:38.186Z,75.90
2022-12-27T05:02:05.346Z,75.70
2022-12-27T05:04:40.293Z,75.60
2022-12-27T05:07:34.204Z,75.50
2022-12-27T05:10:29.186Z,75.40
2022-12-27T05:13:21.190Z,75.40
2022-12-27T05:15:48.909Z,75.30
2022-12-27T05:18:22.211Z,75.20
2022-12-27T05:20:49.396Z,75.10
2022-12-27T05:23:48.205Z,75.00
2022-12-27T05:26:19.132Z,75.00
2022-12-27T05:28:53.206Z,75.00
2022-12-27T05:31:21.188Z,75.00
2022-12-27T05:33:55.205Z,74.90
2022-12-27T05:36:29.262Z,74.90
2022-12-27T05:39:03.185Z,74.70
2022-12-27T05:41:30.081Z,74.70
2022-12-27T05:44:07.341Z,74.60
2022-12-27T05:46:42.228Z,74.60
2022-12-27T05:49:16.186Z,74.70
2022-12-27T05:51:43.159Z,74.70
2022-12-27T05:54:17.242Z,74.70
2022-12-27T05:56:44.136Z,74.80
2022-12-27T05:59:17.208Z,74.50
2022-12-27T06:01:44.276Z,74.80
2022-12-27T06:04:18.185Z,74.80
2022-12-27T06:06:45.154Z,74.60
2022-12-27T06:09:19.197Z,74.50
2022-12-27T06:11:46.134Z,74.50
2022-12-27T06:14:20.210Z,74.20
2022-12-27T06:16:47.164Z,74.20
2022-12-27T06:19:20.181Z,74.20
2022-12-27T06:21:53.218Z,74.00
2022-12-27T06:24:33.234Z,74.00
2022-12-27T06:27:06.486Z,74.00
2022-12-27T06:29:41.223Z,74.10
2022-12-27T06:32:14.169Z,74.00
2022-12-27T06:34:47.242Z,74.00
2022-12-27T06:37:14.264Z,73.90
2022-12-27T06:39:48.221Z,73.80
2022-12-27T06:42:21.248Z,73.80
2022-12-27T06:44:48.312Z,73.70
2022-12-27T06:47:22.188Z,73.60
2022-12-27T06:49:59.229Z,73.40
2022-12-27T06:52:26.609Z,73.50
2022-12-27T06:55:00.267Z,73.40
2022-12-27T06:57:27.232Z,73.30
2022-12-27T07:00:00.221Z,73.10
2022-12-27T07:02:33.415Z,72.90
2022-12-27T07:05:00.823Z,72.90
2022-12-27T07:07:34.231Z,72.90
2022-12-27T07:10:01.169Z,72.80
2022-12-27T07:12:36.801Z,72.70
2022-12-27T07:15:05.396Z,72.50
2022-12-27T07:17:39.221Z,72.10
2022-12-27T07:20:14.288Z,72.20
2022-12-27T07:22:47.361Z,72.00
2022-12-27T07:25:30.273Z,72.00
2022-12-27T07:28:04.258Z,72.00
2022-12-27T07:30:32.663Z,72.00
2022-12-27T07:33:06.282Z,71.80
2022-12-27T07:35:33.279Z,71.60
2022-12-27T07:38:07.322Z,71.70
2022-12-27T07:40:43.264Z,76.00
2022-12-27T07:43:10.172Z,81.00
2022-12-27T07:45:43.297Z,80.60
2022-12-27T07:48:10.296Z,77.30
2022-12-27T07:50:44.241Z,74.20
2022-12-27T07:53:17.262Z,72.30
2022-12-27T07:55:47.265Z,71.40
2022-12-27T07:58:14.235Z,70.80
2022-12-27T08:00:47.322Z,70.50
2022-12-27T08:03:21.234Z,70.70
2022-12-27T08:05:49.648Z,70.60
2022-12-27T08:08:24.253Z,70.50
2022-12-27T08:10:51.251Z,70.60
2022-12-27T08:13:25.206Z,70.80
2022-12-27T08:15:52.526Z,70.80
2022-12-27T08:18:26.193Z,70.80
2022-12-27T08:20:59.247Z,70.90
2022-12-27T08:23:32.421Z,70.90
2022-12-27T08:26:12.256Z,71.00
2022-12-27T08:28:46.239Z,71.00
2022-12-27T08:31:14.131Z,71.00
2022-12-27T08:33:53.637Z,71.20
2022-12-27T08:39:18.222Z,71.40
2022-12-27T08:41:45.397Z,71.20
2022-12-27T08:44:19.181Z,73.90
2022-12-27T08:46:46.151Z,71.60
2022-12-27T08:49:19.222Z,69.20
2022-12-27T08:51:46.119Z,67.70
2022-12-27T08:54:12.982Z,65.90
2022-12-27T08:56:46.202Z,61.90
2022-12-27T08:59:13.131Z,61.00
2022-12-27T09:01:46.288Z,59.60
2022-12-27T09:04:13.383Z,57.50
2022-12-27T09:06:47.229Z,56.90
2022-12-27T09:09:14.190Z,54.70
2022-12-27T09:11:48.222Z,52.80
2022-12-27T09:14:21.186Z,51.50
2022-12-27T09:16:54.197Z,50.40
2022-12-27T09:19:27.214Z,49.60
2022-12-27T09:21:54.112Z,48.00
2022-12-27T09:24:46.489Z,46.90
2022-12-27T09:27:19.514Z,45.80
2022-12-27T09:29:53.256Z,45.50
2022-12-27T09:33:22.617Z,44.90
2022-12-27T09:37:58.911Z,43.00
2022-12-27T09:40:32.203Z,41.80
2022-12-27T09:43:20.668Z,41.90
2022-12-27T09:45:58.238Z,41.50
2022-12-27T09:48:35.242Z,41.70
2022-12-27T09:51:05.463Z,41.40
2022-12-27T09:53:59.480Z,41.00
2022-12-27T09:56:40.931Z,41.00
2022-12-27T09:59:27.229Z,41.20
2022-12-27T10:01:54.248Z,40.60
2022-12-27T10:04:21.404Z,40.70
2022-12-27T10:06:58.449Z,41.20
2022-12-27T10:09:25.456Z,41.20
2022-12-27T10:12:11.260Z,41.40
2022-12-27T10:14:38.102Z,41.50
2022-12-27T10:17:14.229Z,41.50
2022-12-27T10:19:57.964Z,41.60
2022-12-27T10:22:31.277Z,41.20
2022-12-27T10:25:07.503Z,41.00
2022-12-27T10:27:49.211Z,40.90
2022-12-27T10:30:20.103Z,41.40
2022-12-27T10:32:54.236Z,41.90
2022-12-27T10:35:28.281Z,42.10
2022-12-27T10:38:03.209Z,42.10
2022-12-27T10:40:44.195Z,42.20
2022-12-27T10:43:30.240Z,42.30
2022-12-27T10:46:10.598Z,42.30
2022-12-27T10:49:19.376Z,42.80
2022-12-27T10:51:42.263Z,43.60
2022-12-27T10:54:16.354Z,43.70
2022-12-27T10:56:51.252Z,44.70
2022-12-27T10:59:22.641Z,45.00
2022-12-27T11:01:59.356Z,45.00
2022-12-27T11:04:33.230Z,45.60
2022-12-27T11:07:00.087Z,45.80
2022-12-27T11:09:46.283Z,46.40
2022-12-27T11:12:19.132Z,46.80
2022-12-27T11:15:06.376Z,47.40
2022-12-27T11:17:44.190Z,47.60
2022-12-27T11:20:38.214Z,47.90
2022-12-27T11:23:19.376Z,48.40
2022-12-27T11:26:01.215Z,48.70
2022-12-27T11:28:34.217Z,48.90
2022-12-27T11:31:02.689Z,49.40
2022-12-27T11:33:46.261Z,49.30
2022-12-27T11:36:14.242Z,49.40
2022-12-27T11:38:50.264Z,49.90
2022-12-27T11:41:29.777Z,50.10
2022-12-27T11:44:07.345Z,50.20
2022-12-27T11:46:37.251Z,50.70
2022-12-27T11:49:13.259Z,50.80
2022-12-27T11:51:58.651Z,51.00
2022-12-27T11:54:36.251Z,51.20
2022-12-27T11:57:06.219Z,51.30
2022-12-27T11:59:44.239Z,51.70
2022-12-27T12:02:29.385Z,51.80
2022-12-27T12:05:21.281Z,51.80
2022-12-27T12:08:08.514Z,51.90
2022-12-27T12:10:57.264Z,52.10
2022-12-27T12:13:46.272Z,52.20
2022-12-27T12:16:16.198Z,52.30
2022-12-27T12:18:49.249Z,52.30
2022-12-27T12:21:41.217Z,52.40
2022-12-27T12:24:33.208Z,52.50
2022-12-27T12:27:32.324Z,52.60
2022-12-27T12:30:27.402Z,52.90
2022-12-27T12:33:20.407Z,52.60
2022-12-27T12:35:53.282Z,52.60
2022-12-27T12:38:28.210Z,52.70
2022-12-27T12:40:55.021Z,52.90
2022-12-27T12:43:40.217Z,53.20
2022-12-27T12:46:10.152Z,53.10
2022-12-27T12:48:50.312Z,53.30
2022-12-27T12:51:23.422Z,53.30
2022-12-27T12:54:16.282Z,53.50
2022-12-27T12:56:54.505Z,53.60
2022-12-27T12:59:47.328Z,53.80
2022-12-27T13:02:17.481Z,54.20
2022-12-27T13:05:03.326Z,54.50
2022-12-27T13:07:48.218Z,54.80
2022-12-27T13:10:31.222Z,55.20
2022-12-27T13:13:01.951Z,55.40
2022-12-27T13:15:54.248Z,55.50
2022-12-27T13:18:30.664Z,55.40
2022-12-27T13:21:21.229Z,55.40
2022-12-27T13:24:08.354Z,55.50
2022-12-27T13:26:35.247Z,55.60
2022-12-27T13:29:27.343Z,55.70
2022-12-27T13:32:01.083Z,55.70
2022-12-27T13:34:53.302Z,55.60
2022-12-27T13:37:24.547Z,55.70
2022-12-27T13:40:07.291Z,55.60
2022-12-27T13:42:34.172Z,55.60
2022-12-27T13:45:10.311Z,55.70
2022-12-27T13:47:45.979Z,55.80
2022-12-27T13:50:34.328Z,56.00
2022-12-27T13:53:19.495Z,56.10
2022-12-27T13:55:53.333Z,56.20
2022-12-27T13:58:32.563Z,56.30
2022-12-27T14:01:18.409Z,56.40
2022-12-27T14:04:01.323Z,56.40
2022-12-27T14:06:36.355Z,56.50
2022-12-27T14:09:28.314Z,56.50
2022-12-27T14:12:20.293Z,56.50
2022-12-27T14:14:47.563Z,56.50
2022-12-27T14:17:35.358Z,56.70
2022-12-27T14:20:02.298Z,56.80
2022-12-27T14:22:54.128Z,56.80
2022-12-27T14:25:51.334Z,56.90
2022-12-27T14:28:59.450Z,57.10
2022-12-27T14:31:27.014Z,57.20
2022-12-27T14:34:22.440Z,57.30
2022-12-27T14:36:58.213Z,57.40
2022-12-27T14:39:31.355Z,57.50
2022-12-27T14:42:04.315Z,57.60
2022-12-27T14:44:56.316Z,57.50
2022-12-27T14:47:39.343Z,57.50
2022-12-27T14:50:24.944Z,57.60
2022-12-27T14:52:58.326Z,57.80
2022-12-27T14:55:31.985Z,57.90
2022-12-27T14:58:05.349Z,58.20
2022-12-27T15:00:50.100Z,58.30
2022-12-27T15:03:27.500Z,58.40
2022-12-27T15:06:33.868Z,58.80
2022-12-27T15:09:26.344Z,59.60
2022-12-27T15:12:04.349Z,59.50
2022-12-27T15:14:31.421Z,59.20
2022-12-27T15:17:23.403Z,59.20
2022-12-27T15:19:53.749Z,59.30
2022-12-27T15:22:42.349Z,59.30
2022-12-27T15:25:41.283Z,59.40
2022-12-27T15:28:29.880Z,59.70
2022-12-27T15:31:06.275Z,60.00
2022-12-27T15:33:40.901Z,59.90
2022-12-27T15:36:07.816Z,60.20
2022-12-27T15:38:48.296Z,60.30
2022-12-27T15:41:48.398Z,60.30
2022-12-27T15:44:22.266Z,60.40
2022-12-27T15:47:07.838Z,60.40
2022-12-27T15:50:00.298Z,60.60
2022-12-27T15:52:36.142Z,60.50
2022-12-27T15:55:29.259Z,60.50
2022-12-27T15:57:59.218Z,60.70
2022-12-27T16:00:34.794Z,60.90
2022-12-27T16:03:03.689Z,61.00
2022-12-27T16:05:53.313Z,61.10
2022-12-27T16:08:28.559Z,61.00
2022-12-27T16:11:03.329Z,60.70
2022-12-27T16:13:42.869Z,60.50
2022-12-27T16:16:32.948Z,60.40
2022-12-27T16:19:15.428Z,60.90
2022-12-27T16:21:44.354Z,61.60
2022-12-27T16:24:20.757Z,61.80
2022-12-27T16:26:57.482Z,61.90
2022-12-27T16:29:34.362Z,61.80
2022-12-27T16:32:14.554Z,62.10
2022-12-27T16:34:49.435Z,61.70
2022-12-27T16:37:24.992Z,61.60
2022-12-27T16:40:26.044Z,61.70
2022-12-27T16:43:06.244Z,62.00
2022-12-27T16:45:33.266Z,62.70
2022-12-27T16:48:09.655Z,63.00
2022-12-27T16:50:46.336Z,62.80
2022-12-27T16:56:09.267Z,63.00
2022-12-27T16:58:37.668Z,63.10
2022-12-27T17:01:31.370Z,63.20
2022-12-27T17:04:05.253Z,63.10
2022-12-27T17:06:38.035Z,62.80
2022-12-27T17:09:17.303Z,62.50
2022-12-27T17:11:50.234Z,62.30
2022-12-27T17:14:32.274Z,62.40
2022-12-27T17:17:10.251Z,62.40
2022-12-27T17:19:44.443Z,62.40
2022-12-27T17:22:20.289Z,62.60
2022-12-27T17:25:10.308Z,62.70
2022-12-27T17:27:55.319Z,62.70
2022-12-27T17:30:23.912Z,62.60
2022-12-27T17:33:11.322Z,62.70
2022-12-27T17:35:45.962Z,62.80
2022-12-27T17:38:22.296Z,62.80
2022-12-27T17:40:49.227Z,62.90
2022-12-27T17:43:44.265Z,63.00
2022-12-27T17:46:30.254Z,63.10
2022-12-27T17:48:57.998Z,63.70
2022-12-27T17:51:33.322Z,64.10
2022-12-27T17:54:19.022Z,64.40
2022-12-27T17:57:12.296Z,64.20
2022-12-27T17:59:42.419Z,64.20
2022-12-27T18:02:48.413Z,64.10
2022-12-27T18:34:22.016Z,64.90
2022-12-27T18:36:57.142Z,65.20
2022-12-27T18:39:35.029Z,65.30
2022-12-27T18:42:13.200Z,65.50
2022-12-27T18:44:48.259Z,65.60
2022-12-27T18:47:25.040Z,65.50
2022-12-27T18:50:00.173Z,65.70
2022-12-27T18:52:42.103Z,65.70
2022-12-27T18:55:23.098Z,65.80
2022-12-27T18:58:07.096Z,66.10
2022-12-27T19:00:53.210Z,66.00
2022-12-27T19:03:27.096Z,66.20
2022-12-27T19:06:06.101Z,66.30
2022-12-27T19:08:36.200Z,66.20
2022-12-27T19:11:10.063Z,65.80
2022-12-27T19:13:47.403Z,65.60
2022-12-27T19:16:50.077Z,65.70
2022-12-27T19:19:18.677Z,66.20
2022-12-27T19:21:52.163Z,66.10
2022-12-27T19:24:39.341Z,66.00
2022-12-27T19:27:23.101Z,66.20
2022-12-27T19:29:58.199Z,66.00
2022-12-27T19:32:36.086Z,66.20
2022-12-27T19:35:10.101Z,66.20
2022-12-27T19:37:37.087Z,66.30
2022-12-27T19:40:11.139Z,66.40
2022-12-27T19:42:46.142Z,66.20
2022-12-27T19:45:16.758Z,66.20
2022-12-27T19:47:51.078Z,66.20
2022-12-27T19:50:18.217Z,66.60
2022-12-27T19:52:54.161Z,66.60
2022-12-27T19:55:22.522Z,66.30
2022-12-27T19:57:56.073Z,66.10
2022-12-27T20:00:31.128Z,66.10
2022-12-27T20:02:58.132Z,66.30
2022-12-27T20:06:11.747Z,66.40
2022-12-27T20:08:35.720Z,66.60
2022-12-27T20:11:12.202Z,67.00
2022-12-27T20:13:46.091Z,67.30
2022-12-27T20:16:13.917Z,67.00
2022-12-27T20:18:48.062Z,66.80
2022-12-27T20:21:16.312Z,66.60
2022-12-27T20:23:43.475Z,66.50
2022-12-27T20:26:17.043Z,66.50
2022-12-27T20:28:57.157Z,66.80
2022-12-27T20:31:31.201Z,67.00
2022-12-27T20:34:05.040Z,67.30
2022-12-27T20:36:31.980Z,67.40
2022-12-27T20:39:05.101Z,67.50
2022-12-27T20:41:31.942Z,67.40
2022-12-27T20:44:06.239Z,67.50
2022-12-27T20:46:33.221Z,67.60
2022-12-27T20:49:07.111Z,67.20
2022-12-27T20:51:40.083Z,66.70
2022-12-27T20:54:07.562Z,66.50
2022-12-27T20:56:42.162Z,66.50
2022-12-27T20:59:09.048Z,66.70
2022-12-27T21:01:42.145Z,66.90
2022-12-27T21:04:16.050Z,66.90
2022-12-27T21:06:49.060Z,67.00
2022-12-27T21:09:15.939Z,66.90
2022-12-27T21:11:49.079Z,67.10
2022-12-27T21:14:15.916Z,67.00
2022-12-27T21:16:49.134Z,67.20
2022-12-27T21:19:16.993Z,67.20
2022-12-27T21:21:51.070Z,67.40
2022-12-27T21:24:24.100Z,67.80
2022-12-27T21:26:57.036Z,67.70
2022-12-27T21:29:31.428Z,67.10
2022-12-27T21:32:05.046Z,67.00
2022-12-27T21:34:31.949Z,67.20
2022-12-27T21:37:13.051Z,67.10
2022-12-27T21:39:40.430Z,67.20
2022-12-27T21:42:14.153Z,67.10
2022-12-27T21:44:48.160Z,67.10
2022-12-27T21:47:15.164Z,67.30
2022-12-27T21:49:49.098Z,67.40
2022-12-27T21:52:15.967Z,67.50
2022-12-27T21:54:49.168Z,67.70
2022-12-27T21:57:26.120Z,67.90
2022-12-27T22:00:00.145Z,67.70
2022-12-27T22:02:34.235Z,67.80
2022-12-27T22:05:01.207Z,67.40
2022-12-27T22:07:35.087Z,67.30
2022-12-27T22:10:01.949Z,67.20
2022-12-27T22:12:35.118Z,67.30
2022-12-27T22:15:08.079Z,67.40
2022-12-27T22:17:34.954Z,67.40
2022-12-27T22:20:08.092Z,67.40
2022-12-27T22:22:34.935Z,68.00
2022-12-27T22:25:08.035Z,68.20
2022-12-27T22:27:48.064Z,68.20
2022-12-27T22:30:28.107Z,68.00
2022-12-27T22:33:01.118Z,67.60
2022-12-27T22:35:34.089Z,67.00
2022-12-27T22:38:00.942Z,66.90
2022-12-27T22:40:45.740Z,66.80
2022-12-27T22:43:20.091Z,67.00
2022-12-27T22:45:53.484Z,67.10
2022-12-27T22:48:27.074Z,67.00
2022-12-27T22:51:00.044Z,67.10
2022-12-27T22:53:26.974Z,67.20
2022-12-27T22:56:00.129Z,67.30
2022-12-27T22:58:33.552Z,67.30
2022-12-27T23:01:07.073Z,67.40
2022-12-27T23:03:33.907Z,67.60
2022-12-27T23:06:08.035Z,68.20
2022-12-27T23:08:42.073Z,67.90
2022-12-27T23:11:18.069Z,67.60
2022-12-27T23:13:45.309Z,67.80
2022-12-27T23:16:19.158Z,67.90
2022-12-27T23:18:46.175Z,67.80
2022-12-27T23:21:24.573Z,67.90
2022-12-27T23:23:52.032Z,67.80
2022-12-27T23:26:27.109Z,67.70
2022-12-27T23:29:07.266Z,68.60
2022-12-27T23:31:54.671Z,68.40
2022-12-27T23:34:27.678Z,68.30
2022-12-27T23:37:02.107Z,68.20
2022-12-27T23:39:29.050Z,68.20
2022-12-27T23:42:02.111Z,68.00
2022-12-27T23:44:34.184Z,68.30
2022-12-27T23:47:12.069Z,68.40
2022-12-27T23:49:38.950Z,68.10
2022-12-27T23:52:12.109Z,67.90
2022-12-27T23:54:38.989Z,67.80
2022-12-27T23:57:20.182Z,67.90
2022-12-27T23:59:49.979Z,67.50
